Time;durP1;ratioP1;P1;durP2;ratioP2;P2;SDS_P1;SDS_P2;PMS_P1;PMS_P2;Temp;Humidity;BMP_temperature;BMP_pressure;BME280_temperature;BME280_humidity;BME280_pressure;Samples;Min_cycle;Max_cycle;Signal;HPM_P1;HPM_P2
2022/07/11 00:01:59;;;;;;;;;2.67;2.67;;;;;24.76;40.27;101835.91;4957289;28;45548;-76
2022/07/11 00:04:24;;;;;;;;;3.00;3.00;;;;;24.80;40.61;101834.03;4955052;28;45626;-75
2022/07/11 00:06:50;;;;;;;;;3.00;2.00;;;;;24.74;40.60;101835.06;4955323;28;47998;-75
2022/07/11 00:09:15;;;;;;;;;5.00;4.00;;;;;24.75;40.88;101831.44;4957101;28;45473;-75
2022/07/11 00:11:40;;;;;;;;;2.00;2.00;;;;;24.83;40.85;101828.53;4956975;28;45685;-75
2022/07/11 00:14:06;;;;;;;;;1.67;1.67;;;;;24.79;40.94;101821.38;4956639;28;45498;-75
2022/07/11 00:16:31;;;;;;;;;3.00;3.00;;;;;24.72;41.03;101817.91;4956747;28;45539;-75
2022/07/11 00:18:56;;;;;;;;;3.00;3.00;;;;;24.68;40.96;101823.44;4956765;28;45411;-75
2022/07/11 00:21:22;;;;;;;;;4.67;4.00;;;;;24.68;41.05;101828.88;4956924;28;45438;-75
2022/07/11 00:23:47;;;;;;;;;3.67;3.33;;;;;24.57;41.42;101807.38;4956760;28;45386;-75
2022/07/11 00:26:12;;;;;;;;;4.00;4.00;;;;;24.50;41.01;101801.22;4956603;28;45392;-75
2022/07/11 00:28:38;;;;;;;;;4.00;4.00;;;;;24.35;41.31;101798.84;4954822;28;46022;-75
2022/07/11 00:31:03;;;;;;;;;4.00;4.00;;;;;24.51;41.84;101824.69;4957169;28;45385;-75
2022/07/11 00:33:29;;;;;;;;;4.00;3.00;;;;;24.35;41.81;101804.28;4956639;28;45465;-75
2022/07/11 00:35:54;;;;;;;;;3.00;3.00;;;;;24.28;41.68;101819.78;4956553;28;46432;-75
2022/07/11 00:38:19;;;;;;;;;4.33;4.33;;;;;24.30;42.13;101832.38;4956700;28;45315;-75
2022/07/11 00:40:45;;;;;;;;;2.00;2.00;;;;;24.20;41.94;101810.91;4956570;28;45496;-75
2022/07/11 00:43:10;;;;;;;;;3.00;3.00;;;;;24.28;41.92;101831.50;4956422;28;45376;-75
2022/07/11 00:45:36;;;;;;;;;4.00;4.00;;;;;24.23;42.11;101821.69;4955126;28;48020;-76
2022/07/11 00:48:01;;;;;;;;;4.33;4.00;;;;;24.13;42.06;101812.84;4955253;28;45885;-76
2022/07/11 00:50:27;;;;;;;;;4.67;3.67;;;;;24.15;42.03;101811.88;4955112;28;45362;-76
2022/07/11 00:52:54;;;;;;;;;4.33;4.00;;;;;24.20;42.17;101822.63;4956482;28;45338;-76
2022/07/11 00:55:21;;;;;;;;;4.00;3.00;;;;;24.03;42.66;101800.41;4954756;28;47315;-76
2022/07/11 00:57:46;;;;;;;;;4.67;2.00;;;;;24.10;42.57;101821.94;4956003;28;45555;-76
2022/07/11 01:00:13;;;;;;;;;2.00;2.00;;;;;24.07;42.49;101804.84;4955186;28;45867;-76
2022/07/11 01:02:39;;;;;;;;;3.67;3.00;;;;;24.01;42.31;101804.94;4955976;28;45619;-76
2022/07/11 01:05:05;;;;;;;;;3.00;2.00;;;;;24.04;42.57;101816.66;4956401;28;45433;-76
2022/07/11 01:07:31;;;;;;;;;4.00;4.00;;;;;23.91;42.63;101809.66;4956170;28;45316;-76
2022/07/11 01:09:57;;;;;;;;;5.00;3.00;;;;;23.99;42.55;101826.69;4956359;28;45370;-76
2022/07/11 01:12:22;;;;;;;;;3.00;3.00;;;;;23.93;43.33;101795.16;4955890;28;45464;-76
2022/07/11 01:14:55;;;;;;;;;3.00;3.00;;;;;23.99;42.50;101807.69;4956017;28;45431;-76
2022/07/11 01:17:21;;;;;;;;;4.00;4.00;;;;;23.84;42.69;101780.88;4958964;28;45438;-76
2022/07/11 01:19:46;;;;;;;;;2.00;2.00;;;;;23.94;42.40;101807.81;4959633;28;45324;-76
2022/07/11 01:22:14;;;;;;;;;3.00;3.00;;;;;23.88;42.73;101810.66;4959633;28;45416;-76
2022/07/11 01:24:42;;;;;;;;;3.00;2.00;;;;;23.79;43.07;101797.22;4958982;28;46298;-76
2022/07/11 01:27:08;;;;;;;;;4.00;4.00;;;;;23.69;43.30;101784.81;4957757;28;45420;-76
2022/07/11 01:29:34;;;;;;;;;4.67;3.00;;;;;23.73;43.27;101800.06;4959370;28;45396;-76
2022/07/11 01:31:59;;;;;;;;;3.00;2.67;;;;;23.63;43.27;101783.97;4958208;28;45415;-76
2022/07/11 01:34:25;;;;;;;;;4.00;3.00;;;;;23.75;43.41;101792.78;4959288;28;45397;-76
2022/07/11 01:36:50;;;;;;;;;4.00;3.00;;;;;23.52;43.56;101752.63;4959228;28;45359;-76
2022/07/11 01:39:15;;;;;;;;;3.00;3.00;;;;;23.84;43.30;101798.03;4959440;28;45363;-76
2022/07/11 01:41:41;;;;;;;;;3.00;3.00;;;;;23.79;43.24;101783.69;4958897;28;45724;-75
2022/07/11 01:44:07;;;;;;;;;3.67;3.67;;;;;23.78;43.42;101799.06;4957834;28;48163;-76
2022/07/11 01:46:32;;;;;;;;;4.33;3.00;;;;;23.78;43.58;101798.16;4959056;28;45537;-76
2022/07/11 01:48:57;;;;;;;;;2.33;2.33;;;;;23.80;43.29;101799.91;4959349;28;45341;-76
2022/07/11 01:51:23;;;;;;;;;3.00;3.00;;;;;23.74;43.33;101791.00;4957842;28;45452;-76
2022/07/11 01:53:49;;;;;;;;;3.67;2.67;;;;;23.71;43.43;101794.69;4958796;28;45606;-76
2022/07/11 01:56:14;;;;;;;;;3.00;2.00;;;;;23.73;43.09;101802.78;4958596;28;45410;-76
2022/07/11 01:58:40;;;;;;;;;2.67;2.67;;;;;23.78;43.39;101809.91;4958858;28;45382;-76
2022/07/11 02:01:05;;;;;;;;;2.00;2.00;;;;;23.79;43.73;101811.66;4959213;28;45444;-76
2022/07/11 02:03:30;;;;;;;;;4.00;4.00;;;;;23.74;43.32;101796.41;4958629;28;46367;-76
2022/07/11 02:05:56;;;;;;;;;3.00;3.00;;;;;23.67;43.30;101783.91;4957503;28;45374;-76
2022/07/11 02:08:21;;;;;;;;;2.00;2.00;;;;;23.68;43.31;101780.28;4958992;28;45326;-76
2022/07/11 02:10:49;;;;;;;;;3.00;3.00;;;;;23.77;43.21;101796.38;4957171;28;45242;-76
2022/07/11 02:13:17;;;;;;;;;3.00;3.00;;;;;23.78;43.34;101809.91;4957429;28;48367;-76
2022/07/11 02:15:44;;;;;;;;;2.00;2.00;;;;;23.59;43.60;101782.25;4958462;28;45487;-76
2022/07/11 02:18:10;;;;;;;;;2.00;2.00;;;;;23.53;43.70;101781.47;4958820;28;45427;-76
2022/07/11 02:20:37;;;;;;;;;4.00;3.00;;;;;23.66;43.61;101798.41;4958456;28;45428;-76
2022/07/11 02:23:03;;;;;;;;;3.00;3.00;;;;;23.74;43.61;101799.13;4958367;28;46345;-76
2022/07/11 02:25:30;;;;;;;;;3.00;3.00;;;;;23.71;43.83;101802.81;4958252;28;45425;-76
2022/07/11 02:27:56;;;;;;;;;3.00;2.00;;;;;23.69;43.18;101806.47;4956268;28;45403;-76
2022/07/11 02:30:21;;;;;;;;;2.00;2.00;;;;;23.71;43.55;101810.94;4958706;28;45408;-76
2022/07/11 02:32:48;;;;;;;;;4.00;2.00;;;;;23.77;43.24;101807.22;4958149;28;45603;-76
2022/07/11 02:35:13;;;;;;;;;3.00;3.00;;;;;23.76;43.33;101806.31;4957210;28;45473;-76
2022/07/11 02:37:39;;;;;;;;;3.00;3.00;;;;;23.68;43.36;101785.72;4958403;28;45319;-76
2022/07/11 02:40:05;;;;;;;;;2.67;2.67;;;;;23.72;43.31;101796.44;4958103;28;45645;-76
2022/07/11 02:42:30;;;;;;;;;3.00;2.00;;;;;23.75;43.22;101793.69;4958218;28;46390;-77
2022/07/11 02:44:56;;;;;;;;;3.67;3.67;;;;;23.64;43.69;101785.78;4958155;28;45420;-76
2022/07/11 02:47:21;;;;;;;;;2.33;2.33;;;;;23.65;43.31;101797.50;4957172;28;45310;-76
2022/07/11 02:49:48;;;;;;;;;2.00;2.00;;;;;23.51;43.37;101789.63;4956971;28;45635;-75
2022/07/11 02:52:13;;;;;;;;;2.00;2.00;;;;;23.52;43.93;101794.13;4958161;28;46303;-76
2022/07/11 02:54:39;;;;;;;;;3.00;3.00;;;;;23.46;43.60;101789.72;4957528;28;45492;-76
2022/07/11 02:57:04;;;;;;;;;3.00;3.00;;;;;23.54;43.52;101789.56;4958251;28;45361;-76
2022/07/11 02:59:30;;;;;;;;;3.00;3.00;;;;;23.40;43.88;101762.75;4958094;28;45391;-77
2022/07/11 03:01:55;;;;;;;;;1.00;1.00;;;;;23.55;43.57;101791.34;4957746;28;45545;-77
2022/07/11 03:04:20;;;;;;;;;3.00;3.00;;;;;23.46;43.80;101787.00;4956999;28;45429;-77
2022/07/11 03:06:46;;;;;;;;;3.00;3.00;;;;;23.52;44.01;101802.25;4957974;28;45342;-77
2022/07/11 03:09:12;;;;;;;;;2.67;2.67;;;;;23.43;43.80;101792.50;4958070;28;45481;-77
2022/07/11 03:11:37;;;;;;;;;3.00;2.00;;;;;23.45;43.91;101800.59;4957520;28;46148;-76
2022/07/11 03:14:03;;;;;;;;;3.00;3.00;;;;;23.51;43.94;101805.00;4957954;28;45507;-77
2022/07/11 03:16:29;;;;;;;;;3.00;3.00;;;;;23.50;44.37;101796.00;4958036;28;45520;-77
2022/07/11 03:18:55;;;;;;;;;3.00;2.00;;;;;23.35;43.92;101772.78;4957801;28;45420;-76
2022/07/11 03:21:20;;;;;;;;;2.33;2.33;;;;;23.43;44.18;101780.75;4956360;28;47306;-76
2022/07/11 03:23:46;;;;;;;;;2.00;2.00;;;;;23.45;43.92;101781.63;4955643;28;45469;-76
2022/07/11 03:26:11;;;;;;;;;3.00;3.00;;;;;23.53;43.90;101789.59;4957766;28;45501;-76
2022/07/11 03:28:37;;;;;;;;;2.00;2.00;;;;;23.57;43.98;101802.16;4957665;28;45844;-76
2022/07/11 03:31:03;;;;;;;;;3.67;3.67;;;;;23.53;44.43;101797.72;4957663;28;45483;-76
2022/07/11 03:33:28;;;;;;;;;3.00;3.00;;;;;23.38;44.28;101775.41;4957447;28;45441;-76
2022/07/11 03:35:54;;;;;;;;;3.00;3.00;;;;;23.43;44.25;101780.75;4957471;28;45444;-76
2022/07/11 03:38:20;;;;;;;;;3.00;3.00;;;;;23.41;44.55;101782.59;4957274;28;45451;-76
2022/07/11 03:40:47;;;;;;;;;3.33;3.33;;;;;23.48;44.41;101795.09;4957212;28;45396;-76
2022/07/11 03:43:12;;;;;;;;;4.00;3.00;;;;;23.43;44.61;101794.28;4957616;28;45430;-76
2022/07/11 03:45:38;;;;;;;;;3.00;3.00;;;;;23.41;44.68;101798.84;4957421;28;45413;-76
2022/07/11 03:48:04;;;;;;;;;3.00;3.00;;;;;23.49;44.76;101806.81;4957295;28;45337;-76
2022/07/11 03:50:29;;;;;;;;;3.00;3.00;;;;;23.44;44.40;101801.50;4957399;28;45406;-76
2022/07/11 03:52:55;;;;;;;;;2.67;2.67;;;;;23.33;44.42;101784.56;4956633;28;45334;-76
2022/07/11 03:55:21;;;;;;;;;2.00;2.00;;;;;23.32;44.47;101782.75;4957252;28;45568;-77
2022/07/11 03:57:46;;;;;;;;;2.33;2.33;;;;;23.41;44.24;101796.13;4957045;28;45524;-76
2022/07/11 04:00:13;;;;;;;;;3.00;2.67;;;;;23.44;44.12;101798.78;4957076;28;46343;-77
2022/07/11 04:02:38;;;;;;;;;3.33;3.00;;;;;23.44;44.40;101804.19;4955620;28;45835;-76
2022/07/11 04:05:04;;;;;;;;;2.00;2.00;;;;;23.35;44.54;101798.97;4957210;28;45388;-76
2022/07/11 04:07:29;;;;;;;;;3.00;3.00;;;;;23.38;44.41;101805.22;4957084;28;45417;-76
2022/07/11 04:09:55;;;;;;;;;2.00;2.00;;;;;23.37;43.89;101794.41;4955421;28;47895;-77
2022/07/11 04:12:21;;;;;;;;;2.33;2.33;;;;;23.32;44.04;101793.59;4957181;28;45339;-77
2022/07/11 04:14:46;;;;;;;;;2.00;2.00;;;;;23.26;44.41;101784.66;4955711;28;45400;-76
2022/07/11 04:17:12;;;;;;;;;2.67;2.67;;;;;23.38;44.56;101804.31;4955686;28;45405;-77
2022/07/11 04:19:38;;;;;;;;;2.67;2.67;;;;;23.24;44.35;101791.03;4956905;28;46414;-76
2022/07/11 04:22:04;;;;;;;;;4.00;4.00;;;;;23.24;44.55;101785.59;4956389;28;45403;-77
2022/07/11 04:24:29;;;;;;;;;3.00;3.00;;;;;23.14;44.59;101762.34;4956852;28;45390;-76
2022/07/11 04:26:55;;;;;;;;;2.00;2.00;;;;;23.18;44.45;101775.78;4956677;28;45574;-76
2022/07/11 04:29:20;;;;;;;;;4.33;4.00;;;;;23.15;44.89;101774.94;4956475;28;45499;-76
2022/07/11 04:31:45;;;;;;;;;2.00;2.00;;;;;23.11;44.95;101772.28;4956750;28;45449;-76
2022/07/11 04:34:10;;;;;;;;;2.67;2.67;;;;;23.18;44.70;101786.63;4956880;28;45506;-76
2022/07/11 04:36:36;;;;;;;;;3.00;3.00;;;;;23.17;45.08;101794.75;4955151;28;45477;-76
2022/07/11 04:39:02;;;;;;;;;3.00;3.00;;;;;23.22;44.70;101793.75;4956340;28;45491;-75
2022/07/11 04:41:27;;;;;;;;;4.00;4.00;;;;;23.25;44.88;101798.25;4955341;28;45441;-76
2022/07/11 04:43:53;;;;;;;;;3.67;2.67;;;;;23.13;44.54;101785.78;4956480;28;45453;-76
2022/07/11 04:46:18;;;;;;;;;3.33;3.33;;;;;22.94;44.70;101767.13;4956753;28;45435;-77
2022/07/11 04:48:44;;;;;;;;;4.00;4.00;;;;;22.95;45.28;101782.44;4955008;28;48254;-76
2022/07/11 04:51:09;;;;;;;;;3.00;3.00;;;;;22.89;44.73;101793.34;4955551;28;45516;-76
2022/07/11 04:53:34;;;;;;;;;4.00;4.00;;;;;23.01;45.15;101813.94;4956328;28;45468;-76
2022/07/11 04:56:00;;;;;;;;;3.00;3.00;;;;;23.07;44.89;101821.94;4954963;28;45329;-76
2022/07/11 04:58:25;;;;;;;;;3.00;3.00;;;;;23.07;45.50;101826.47;4956340;28;46196;-71
2022/07/11 05:00:51;;;;;;;;;6.00;3.00;;;;;23.16;45.05;101829.03;4956190;28;45530;-72
2022/07/11 05:03:18;;;;;;;;;3.67;3.67;;;;;23.23;45.04;101821.72;4956285;28;45443;-72
2022/07/11 05:05:44;;;;;;;;;2.00;2.00;;;;;23.24;45.20;101827.09;4955788;28;45508;-73
2022/07/11 05:08:09;;;;;;;;;3.00;3.00;;;;;23.27;45.02;101824.34;4955762;28;46160;-74
2022/07/11 05:10:36;;;;;;;;;4.00;3.00;;;;;23.23;45.04;101810.88;4956279;28;45546;-72
2022/07/11 05:13:02;;;;;;;;;5.00;4.00;;;;;23.40;44.92;101834.97;4954786;28;45326;-72
2022/07/11 05:15:27;;;;;;;;;4.00;4.00;;;;;23.43;44.54;101837.63;4956050;28;45395;-72
2022/07/11 05:17:53;;;;;;;;;3.00;3.00;;;;;23.50;44.48;101839.31;4955608;28;46638;-72
2022/07/11 05:20:18;;;;;;;;;3.33;3.00;;;;;23.54;44.91;101845.56;4955531;28;45439;-73
2022/07/11 05:22:44;;;;;;;;;4.00;2.33;;;;;23.56;44.64;101841.03;4954311;28;45385;-73
2022/07/11 05:25:09;;;;;;;;;5.00;5.00;;;;;23.60;44.80;101835.50;4955929;28;45318;-73
2022/07/11 05:27:35;;;;;;;;;4.33;4.33;;;;;23.61;44.71;101833.69;4955783;28;46155;-74
2022/07/11 05:30:00;;;;;;;;;4.00;4.00;;;;;23.67;44.49;101835.38;4955760;28;45313;-74
2022/07/11 05:32:26;;;;;;;;;3.67;3.67;;;;;23.75;44.59;101841.56;4955840;28;45248;-73
2022/07/11 05:34:51;;;;;;;;;4.67;4.67;;;;;23.73;43.97;101832.59;4955644;28;45492;-73
2022/07/11 05:37:17;;;;;;;;;3.33;3.33;;;;;23.81;44.16;101849.56;4948825;28;45663;-73
2022/07/11 05:39:42;;;;;;;;;5.33;4.00;;;;;23.81;44.16;101841.44;4936495;28;45409;-73
2022/07/11 05:42:07;;;;;;;;;3.00;3.00;;;;;23.85;44.47;101837.75;4948105;28;45461;-72
2022/07/11 05:44:33;;;;;;;;;3.00;3.00;;;;;23.64;44.24;101798.41;4955863;28;45425;-72
2022/07/11 05:47:00;;;;;;;;;3.33;2.00;;;;;23.91;43.99;101843.09;4949195;28;45533;-71
2022/07/11 05:49:25;;;;;;;;;5.00;5.00;;;;;23.95;44.33;101842.13;4947968;28;45979;-69
2022/07/11 05:51:51;;;;;;;;;3.67;3.67;;;;;23.93;44.34;101833.13;4947717;28;45353;-73
2022/07/11 05:54:16;;;;;;;;;4.33;4.33;;;;;24.04;43.93;101841.03;4954946;28;46812;-75
2022/07/11 05:56:42;;;;;;;;;4.00;4.00;;;;;24.07;44.36;101837.38;4952437;28;46493;-73
2022/07/11 05:59:08;;;;;;;;;6.00;3.00;;;;;24.14;43.58;101850.75;4936224;28;45470;-76
2022/07/11 06:01:34;;;;;;;;;3.33;3.33;;;;;24.12;43.63;101844.50;4935973;28;45464;-74
2022/07/11 06:04:00;;;;;;;;;4.00;4.00;;;;;24.11;43.67;101839.09;4937995;28;45361;-74
2022/07/11 06:06:25;;;;;;;;;3.00;3.00;;;;;24.19;43.51;101837.13;4939564;28;45492;-74
2022/07/11 06:08:50;;;;;;;;;4.00;4.00;;;;;24.20;43.60;101833.47;4939165;28;45326;-73
2022/07/11 06:11:16;;;;;;;;;3.00;3.00;;;;;24.26;43.06;101832.44;4939521;28;45348;-73
2022/07/11 06:13:47;;;;;;;;;4.00;4.00;;;;;24.34;43.08;101840.44;4939232;28;45287;-73
2022/07/11 06:16:13;;;;;;;;;3.00;3.00;;;;;24.37;43.21;101845.78;4938593;28;45516;-73
2022/07/11 06:18:39;;;;;;;;;4.00;4.00;;;;;24.37;43.07;101848.50;4939096;28;45315;-73
2022/07/11 06:21:05;;;;;;;;;3.00;3.00;;;;;24.46;42.80;101845.63;4939067;28;45533;-73
2022/07/11 06:23:31;;;;;;;;;4.00;4.00;;;;;24.51;42.64;101865.38;4946001;28;45302;-74
2022/07/11 06:25:57;;;;;;;;;4.00;4.00;;;;;24.51;42.92;101861.78;4958080;28;45506;-73
2022/07/11 06:28:23;;;;;;;;;3.33;3.00;;;;;24.55;43.17;101858.97;4958362;28;45314;-74
2022/07/11 06:30:49;;;;;;;;;3.67;3.67;;;;;24.55;43.24;101849.94;4958184;28;45418;-73
2022/07/11 06:33:19;;;;;;;;;4.00;4.00;;;;;24.54;43.49;101846.31;4958312;28;45360;-73
2022/07/11 06:35:45;;;;;;;;;4.00;4.00;;;;;24.64;43.07;101858.81;4958244;28;45512;-73
2022/07/11 06:38:15;;;;;;;;;4.67;4.00;;;;;24.64;43.30;101850.66;4957339;28;45552;-74
2022/07/11 06:40:42;;;;;;;;;4.00;4.00;;;;;24.70;43.10;101855.06;4957821;28;45459;-74
2022/07/11 06:43:08;;;;;;;;;5.00;5.00;;;;;24.60;43.42;101838.09;4938598;28;45317;-74
2022/07/11 06:45:34;;;;;;;;;4.00;4.00;;;;;24.71;43.65;101850.50;4947878;28;46488;-74
2022/07/11 06:48:00;;;;;;;;;4.33;4.33;;;;;24.68;43.49;101842.44;4922411;28;45659;-74
2022/07/11 06:50:25;;;;;;;;;4.00;4.00;;;;;24.75;43.07;101835.94;4944291;28;46309;-74
2022/07/11 06:52:51;;;;;;;;;4.00;4.00;;;;;24.76;43.08;101822.34;4952131;28;46297;-74
2022/07/11 06:55:16;;;;;;;;;4.00;4.00;;;;;24.86;43.18;101827.56;4953209;28;45909;-74
2022/07/11 06:57:42;;;;;;;;;5.00;5.00;;;;;24.88;43.19;101837.47;4952598;28;45570;-74
2022/07/11 07:00:08;;;;;;;;;4.33;4.00;;;;;24.90;42.81;101849.16;4952784;28;45612;-74
2022/07/11 07:02:34;;;;;;;;;4.33;4.33;;;;;24.94;42.82;101850.88;4952991;28;45472;-74
2022/07/11 07:05:00;;;;;;;;;5.33;4.00;;;;;24.94;42.81;101842.72;4952537;28;45618;-74
2022/07/11 07:07:26;;;;;;;;;5.00;4.67;;;;;24.94;43.28;101829.16;4952148;28;45590;-74
2022/07/11 07:09:54;;;;;;;;;4.00;4.00;;;;;24.98;42.96;101838.13;4951409;28;45537;-74
2022/07/11 07:12:21;;;;;;;;;6.00;5.00;;;;;25.00;42.80;101844.41;4952602;28;45438;-74
2022/07/11 07:14:46;;;;;;;;;5.00;5.00;;;;;24.80;42.75;101807.75;4952193;28;45522;-74
2022/07/11 07:17:11;;;;;;;;;7.00;4.33;;;;;25.07;42.79;101851.47;4952752;28;45402;-74
2022/07/11 07:19:37;;;;;;;;;4.00;4.00;;;;;25.03;42.67;101840.72;4953749;28;45922;-74
2022/07/11 07:22:03;;;;;;;;;6.50;4.00;;;;;25.12;42.84;101848.66;4953911;28;45652;-74
2022/07/11 07:24:28;;;;;;;;;5.67;5.67;;;;;25.12;42.83;101845.94;4952929;28;46311;-73
2022/07/11 07:26:53;;;;;;;;;3.00;3.00;;;;;25.13;43.00;101836.84;4952008;28;46364;-74
2022/07/11 07:29:19;;;;;;;;;4.00;4.00;;;;;25.13;42.21;101839.56;4952571;28;45719;-74
2022/07/11 07:31:44;;;;;;;;;4.00;3.00;;;;;25.17;42.72;101844.00;4952712;28;45549;-74
2022/07/11 07:34:10;;;;;;;;;4.00;3.00;;;;;25.18;42.20;101835.81;4950703;28;47068;-74
2022/07/11 07:36:36;;;;;;;;;4.00;3.67;;;;;25.20;42.70;101843.91;4951720;28;45650;-74
2022/07/11 07:39:01;;;;;;;;;4.00;4.00;;;;;25.23;41.94;101835.72;4953701;28;45518;-74
2022/07/11 07:41:27;;;;;;;;;3.67;3.67;;;;;25.20;42.31;101832.16;4952779;28;45453;-75
2022/07/11 07:43:52;;;;;;;;;4.00;1.67;;;;;25.25;42.12;101839.25;4951468;28;46561;-74
2022/07/11 07:46:18;;;;;;;;;3.00;3.00;;;;;25.34;41.73;101849.94;4951092;28;45426;-74
2022/07/11 07:48:43;;;;;;;;;7.00;5.00;;;;;25.41;41.96;101844.34;4952428;28;45512;-74
2022/07/11 07:51:09;;;;;;;;;4.00;3.00;;;;;25.35;41.50;101845.38;4952497;28;45613;-74
2022/07/11 07:53:34;;;;;;;;;3.00;3.00;;;;;25.42;41.44;101841.56;4952615;28;45400;-74
2022/07/11 07:56:00;;;;;;;;;3.00;3.00;;;;;25.50;41.20;101852.25;4952070;28;45479;-73
2022/07/11 07:58:27;;;;;;;;;2.00;2.00;;;;;25.48;41.79;101845.97;4951960;28;45858;-75
2022/07/11 08:03:36;;;;;;;;;3.00;3.00;;;;;25.60;41.06;101855.63;4945249;28;45859;-75
2022/07/11 08:06:01;;;;;;;;;2.00;2.00;;;;;25.60;40.60;101850.19;4947289;28;46480;-74
2022/07/11 08:08:26;;;;;;;;;4.00;3.00;;;;;25.63;40.90;101841.97;4948075;28;45596;-74
2022/07/11 08:10:52;;;;;;;;;1.00;1.00;;;;;25.63;41.25;101837.41;4949523;28;45816;-74
2022/07/11 08:13:40;;;;;;;;;4.00;3.00;;;;;25.66;40.92;101841.88;4947325;28;45778;-74
2022/07/11 08:16:06;;;;;;;;;4.33;3.67;;;;;25.68;40.71;101849.06;4943618;28;45464;-75
2022/07/11 08:18:35;;;;;;;;;2.67;2.00;;;;;25.73;40.69;101839.88;4947291;28;45805;-75
2022/07/11 08:21:20;;;;;;;;;3.00;3.00;;;;;25.80;40.27;101849.66;4944488;28;45590;-75
2022/07/11 08:23:45;;;;;;;;;2.33;2.33;;;;;25.81;40.72;101846.88;4947168;28;46266;-74
2022/07/11 08:26:11;;;;;;;;;6.33;3.00;;;;;25.82;40.45;101842.34;4943768;28;45465;-74
2022/07/11 08:28:36;;;;;;;;;2.00;2.00;;;;;25.85;40.79;101840.44;4944486;28;45830;-73
2022/07/11 08:31:01;;;;;;;;;2.33;2.33;;;;;25.78;40.52;101813.44;4945549;28;45532;-73
2022/07/11 08:33:27;;;;;;;;;4.00;4.00;;;;;25.91;40.44;101830.34;4945794;28;45451;-73
2022/07/11 08:35:52;;;;;;;;;4.00;3.33;;;;;25.95;40.51;101815.69;4945442;28;45501;-74
2022/07/11 08:38:36;;;;;;;;;3.00;2.00;;;;;26.01;40.42;101821.00;4946145;28;45740;-73
2022/07/11 08:41:03;;;;;;;;;3.00;3.00;;;;;26.09;39.87;101809.88;4947233;28;45520;-74
2022/07/11 08:43:29;;;;;;;;;2.33;2.33;;;;;26.10;39.79;101807.13;4946019;28;46671;-74
2022/07/11 08:45:55;;;;;;;;;3.00;3.00;;;;;25.99;40.22;101780.22;4946143;28;45445;-74
2022/07/11 08:48:21;;;;;;;;;3.00;2.00;;;;;26.08;40.66;101799.97;4947714;28;46071;-74
2022/07/11 08:50:48;;;;;;;;;3.00;3.00;;;;;26.17;40.14;101814.19;4947447;28;45921;-74
2022/07/11 08:53:14;;;;;;;;;7.67;7.67;;;;;26.16;39.41;101795.16;4945705;28;46120;-73
2022/07/11 08:55:39;;;;;;;;;5.67;5.67;;;;;26.21;39.71;101795.06;4947174;28;45639;-73
2022/07/11 08:58:07;;;;;;;;;4.67;3.33;;;;;26.25;39.45;101797.63;4947893;28;45498;-73
2022/07/11 09:00:32;;;;;;;;;2.33;2.33;;;;;26.23;39.10;101794.06;4947515;28;45698;-73
2022/07/11 09:03:00;;;;;;;;;4.00;3.00;;;;;26.23;39.31;101788.63;4947374;28;47004;-73
2022/07/11 09:05:27;;;;;;;;;3.33;3.00;;;;;26.27;39.19;101790.31;4947039;28;45520;-73
2022/07/11 09:08:11;;;;;;;;;3.33;2.33;;;;;26.29;39.36;101793.00;4946181;28;45602;-73
2022/07/11 09:10:40;;;;;;;;;3.00;3.00;;;;;26.36;39.49;101794.59;4944454;28;45505;-73
2022/07/11 09:13:08;;;;;;;;;4.67;3.00;;;;;26.50;39.52;101807.78;4947833;28;46211;-73
2022/07/11 09:15:41;;;;;;;;;4.00;3.00;;;;;26.48;39.27;101791.50;4947514;28;45854;-73
2022/07/11 09:18:37;;;;;;;;;2.00;2.00;;;;;26.53;39.38;101796.78;4942994;28;45459;-75
2022/07/11 09:27:10;;;;;;;;;3.00;3.00;;;;;26.64;39.13;101793.72;4943618;28;45480;-75
2022/07/11 09:29:35;;;;;;;;;2.67;2.67;;;;;26.70;39.50;101788.13;4943097;28;45499;-75
2022/07/11 09:32:01;;;;;;;;;2.67;2.67;;;;;26.72;39.12;101778.06;4942367;28;45846;-75
2022/07/11 09:37:10;;;;;;;;;2.00;2.00;;;;;26.63;39.09;101746.56;4946395;28;45709;-79
2022/07/11 09:39:36;;;;;;;;;8.00;6.00;;;;;26.86;38.86;101767.63;4946964;28;45393;-75
2022/07/11 09:42:01;;;;;;;;;5.33;5.33;;;;;26.89;39.02;101763.88;4947876;28;45444;-76
2022/07/11 09:44:31;;;;;;;;;2.00;2.00;;;;;26.94;38.56;101775.53;4945703;28;46119;-75
2022/07/11 09:46:57;;;;;;;;;2.00;2.00;;;;;26.95;38.50;101769.13;4946427;28;45970;-76
2022/07/11 09:49:33;;;;;;;;;2.33;2.33;;;;;27.07;38.76;101784.16;4949062;28;45592;-76
2022/07/11 09:52:11;;;;;;;;;2.00;2.00;;;;;27.14;38.38;101774.84;4949921;28;45983;-77
2022/07/11 09:54:56;;;;;;;;;1.33;1.33;;;;;27.20;38.74;101777.38;4949685;28;45982;-76
2022/07/11 09:57:35;;;;;;;;;2.00;1.67;;;;;27.25;38.84;101782.66;4947494;28;45884;-76
2022/07/11 10:00:05;;;;;;;;;2.00;2.00;;;;;27.32;38.64;101786.94;4948680;28;45515;-76
2022/07/11 10:02:31;;;;;;;;;3.00;3.00;;;;;27.27;38.38;101761.69;4947546;28;46598;-76
2022/07/11 10:05:01;;;;;;;;;2.00;2.00;;;;;27.35;38.44;101769.63;4949052;28;45913;-76
2022/07/11 10:07:45;;;;;;;;;1.00;1.00;;;;;27.41;38.40;101763.94;4947802;28;45852;-76
2022/07/11 10:10:11;;;;;;;;;1.67;1.67;;;;;27.48;38.01;101770.97;4948738;28;45547;-76
2022/07/11 10:12:55;;;;;;;;;1.67;1.67;;;;;27.57;38.27;101764.31;4949196;28;45628;-76
2022/07/11 10:15:29;;;;;;;;;3.00;2.00;;;;;27.60;38.28;101766.91;4948661;28;46404;-76
2022/07/11 10:17:57;;;;;;;;;1.00;1.00;;;;;27.67;38.30;101775.75;4950578;28;45534;-76
2022/07/11 10:20:41;;;;;;;;;1.00;1.00;;;;;27.63;37.72;101771.38;4948303;28;45543;-75
2022/07/11 10:23:13;;;;;;;;;2.00;2.00;;;;;27.63;37.80;101769.53;4947247;28;45498;-78
2022/07/11 10:25:56;;;;;;;;;3.00;2.00;;;;;27.56;37.71;101767.97;4946715;28;47751;-77
2022/07/11 10:28:51;;;;;;;;;1.00;1.00;;;;;27.54;37.77;101773.47;4950893;28;45548;-78
2022/07/11 10:31:19;;;;;;;;;1.00;1.00;;;;;27.53;37.90;101763.50;4945965;28;45819;-76
2022/07/11 10:34:05;;;;;;;;;2.00;2.00;;;;;27.66;38.05;101777.56;4950658;28;45301;-75
2022/07/11 10:36:41;;;;;;;;;2.67;2.00;;;;;27.72;37.87;101777.38;4947823;28;47298;-77
2022/07/11 10:39:21;;;;;;;;;2.00;2.00;;;;;27.71;37.35;101767.41;4947859;28;45619;-77
2022/07/11 10:41:47;;;;;;;;;2.00;2.00;;;;;27.70;37.59;101776.53;4949771;28;45549;-77
2022/07/11 10:44:12;;;;;;;;;2.00;2.00;;;;;27.67;37.89;101743.94;4950456;28;45622;-77
2022/07/11 10:46:38;;;;;;;;;7.33;6.33;;;;;27.82;37.78;101755.19;4946203;28;48330;-77
2022/07/11 10:49:15;;;;;;;;;23.00;19.33;;;;;27.94;37.76;101765.66;4946060;28;45851;-77
2022/07/11 10:51:40;;;;;;;;;6.00;6.00;;;;;28.00;37.71;101768.19;4946627;28;45473;-76
2022/07/11 10:54:26;;;;;;;;;10.33;10.33;;;;;27.97;37.53;101751.88;4948081;28;45842;-75
2022/07/11 10:57:16;;;;;;;;;3.00;3.00;;;;;28.13;37.35;101774.06;4948663;28;45645;-77
2022/07/11 10:59:55;;;;;;;;;7.67;3.67;;;;;28.19;37.36;101775.66;4946414;28;45858;-75
2022/07/11 11:02:20;;;;;;;;;8.00;7.00;;;;;28.22;37.06;101772.81;4944593;28;45627;-77
2022/07/11 11:04:52;;;;;;;;;7.67;7.67;;;;;28.22;36.76;101754.59;4940606;28;45536;-78
2022/07/11 11:07:44;;;;;;;;;13.67;13.67;;;;;28.28;36.57;101769.84;4945161;28;46396;-75
2022/07/11 11:10:18;;;;;;;;;3.67;2.67;;;;;28.33;37.14;101756.91;4947407;28;45606;-76
2022/07/11 11:13:06;;;;;;;;;35.00;30.33;;;;;28.40;37.01;101760.28;4945563;28;45663;-76
2022/07/11 11:15:54;;;;;;;;;4.67;4.00;;;;;28.37;36.78;101747.66;4945202;28;45563;-77
2022/07/11 11:18:25;;;;;;;;;9.00;8.00;;;;;28.52;36.72;101747.97;4946811;28;46413;-77
2022/07/11 11:21:03;;;;;;;;;2.33;2.33;;;;;28.54;36.24;101746.09;4947227;28;45977;-76
2022/07/11 11:23:32;;;;;;;;;6.67;6.67;;;;;28.46;36.71;101754.56;4950895;28;45520;-78
2022/07/11 11:26:19;;;;;;;;;20.33;17.00;;;;;28.44;36.83;101734.66;4948306;28;45725;-77
2022/07/11 11:29:01;;;;;;;;;3.00;3.00;;;;;28.55;36.58;101736.91;4946857;28;46179;-77
2022/07/11 11:31:32;;;;;;;;;4.00;4.00;;;;;28.63;36.29;101736.66;4945741;28;45571;-77
2022/07/11 11:33:59;;;;;;;;;3.00;3.00;;;;;28.53;35.95;101712.41;4946831;28;45440;-77
2022/07/11 11:36:26;;;;;;;;;2.00;2.00;;;;;28.68;36.08;101732.78;4946898;28;45385;-77
2022/07/11 11:38:52;;;;;;;;;4.33;3.00;;;;;28.73;35.53;101718.91;4946781;28;45439;-77